Prue, Oklahoma
Current Conditions -  °F | °C
As of 5:55 PM on Wednesday 28 Jan 2015 (Local Time) from KOWP Reporting Station
Clear Clear  
Wind Chill: 75°   Ceiling: Unl
Heat Index: 75°   Visibility: 10mi
Dew Point: 39°   Wind: 7mph
Humidity: 27%   Direction: 210°SSW
Pressure: 29.86"   Gusts: NA
Location:  36.24°N, 96.32°W
Report Text: KOWP 282355Z AUTO 21006KT 10SM CLR 24/04 A2986 RMK AO2 T02410040 10278 20241
Loading
Personal Weather Stations






























Interactive Weather Map New forecast layout! Learn more

10-Day Weather Forecast

Advertisements
Track Severe Weather on mobile